sensor_id;sensor_type;location;lat;lon;timestamp;P1;durP1;ratioP1;P2;durP2;ratioP2
17949;SDS011;9100;48.700;9.316;2023-04-06T00:00:13;6;;;5.5;;
17949;SDS011;9100;48.700;9.316;2023-04-06T00:01:13;6;;;5.5;;
17949;SDS011;9100;48.700;9.316;2023-04-06T00:02:12;6;;;5.5;;
17949;SDS011;9100;48.700;9.316;2023-04-06T00:02:48;6.2;;;5.6;;
17949;SDS011;9100;48.700;9.316;2023-04-06T00:03:12;6.2;;;5.6;;
17949;SDS011;9100;48.700;9.316;2023-04-06T00:04:13;6.2;;;5.6;;
17949;SDS011;9100;48.700;9.316;2023-04-06T00:05:12;6.2;;;5.6;;
17949;SDS011;9100;48.700;9.316;2023-04-06T00:06:12;6.2;;;5.6;;
17949;SDS011;9100;48.700;9.316;2023-04-06T00:07:13;6.2;;;5.6;;
17949;SDS011;9100;48.700;9.316;2023-04-06T00:07:48;7.4;;;5.9;;
17949;SDS011;9100;48.700;9.316;2023-04-06T00:08:12;7.4;;;5.9;;
17949;SDS011;9100;48.700;9.316;2023-04-06T00:09:12;7.4;;;5.9;;
17949;SDS011;9100;48.700;9.316;2023-04-06T00:10:12;7.4;;;5.9;;
17949;SDS011;9100;48.700;9.316;2023-04-06T00:11:12;7.4;;;5.9;;
17949;SDS011;9100;48.700;9.316;2023-04-06T00:12:12;7.4;;;5.9;;
17949;SDS011;9100;48.700;9.316;2023-04-06T00:12:48;10.2;;;7;;
17949;SDS011;9100;48.700;9.316;2023-04-06T00:13:13;10.2;;;7;;
17949;SDS011;9100;48.700;9.316;2023-04-06T00:14:13;10.2;;;7;;
17949;SDS011;9100;48.700;9.316;2023-04-06T00:15:13;10.2;;;7;;
17949;SDS011;9100;48.700;9.316;2023-04-06T00:16:13;10.2;;;7;;
17949;SDS011;9100;48.700;9.316;2023-04-06T00:17:13;10.2;;;7;;
17949;SDS011;9100;48.700;9.316;2023-04-06T00:17:48;10;;;5.9;;
17949;SDS011;9100;48.700;9.316;2023-04-06T00:18:13;10;;;5.9;;
17949;SDS011;9100;48.700;9.316;2023-04-06T00:19:13;10;;;5.9;;
17949;SDS011;9100;48.700;9.316;2023-04-06T00:20:13;10;;;5.9;;
17949;SDS011;9100;48.700;9.316;2023-04-06T00:21:13;10;;;5.9;;
17949;SDS011;9100;48.700;9.316;2023-04-06T00:22:13;10;;;5.9;;
17949;SDS011;9100;48.700;9.316;2023-04-06T00:22:48;10;;;6.2;;
17949;SDS011;9100;48.700;9.316;2023-04-06T00:23:13;10;;;6.2;;
17949;SDS011;9100;48.700;9.316;2023-04-06T00:24:13;10;;;6.2;;
17949;SDS011;9100;48.700;9.316;2023-04-06T00:25:12;10;;;6.2;;
17949;SDS011;9100;48.700;9.316;2023-04-06T00:26:12;10;;;6.2;;
17949;SDS011;9100;48.700;9.316;2023-04-06T00:27:12;10;;;6.2;;
17949;SDS011;9100;48.700;9.316;2023-04-06T00:27:48;8.1;;;6.6;;
17949;SDS011;9100;48.700;9.316;2023-04-06T00:28:13;8.1;;;6.6;;
17949;SDS011;9100;48.700;9.316;2023-04-06T00:29:13;8.1;;;6.6;;
17949;SDS011;9100;48.700;9.316;2023-04-06T00:30:13;8.1;;;6.6;;
17949;SDS011;9100;48.700;9.316;2023-04-06T00:31:12;8.1;;;6.6;;
17949;SDS011;9100;48.700;9.316;2023-04-06T00:32:12;8.1;;;6.6;;
17949;SDS011;9100;48.700;9.316;2023-04-06T00:32:48;7.1;;;6.4;;
17949;SDS011;9100;48.700;9.316;2023-04-06T00:33:12;7.1;;;6.4;;
17949;SDS011;9100;48.700;9.316;2023-04-06T00:34:13;7.1;;;6.4;;
17949;SDS011;9100;48.700;9.316;2023-04-06T00:35:13;7.1;;;6.4;;
17949;SDS011;9100;48.700;9.316;2023-04-06T00:36:12;7.1;;;6.4;;
17949;SDS011;9100;48.700;9.316;2023-04-06T00:37:12;7.1;;;6.4;;
17949;SDS011;9100;48.700;9.316;2023-04-06T00:37:48;7.3;;;6.6;;
17949;SDS011;9100;48.700;9.316;2023-04-06T00:38:13;7.3;;;6.6;;
17949;SDS011;9100;48.700;9.316;2023-04-06T00:39:12;7.3;;;6.6;;
17949;SDS011;9100;48.700;9.316;2023-04-06T00:40:13;7.3;;;6.6;;
17949;SDS011;9100;48.700;9.316;2023-04-06T00:41:13;7.3;;;6.6;;
17949;SDS011;9100;48.700;9.316;2023-04-06T00:42:13;7.3;;;6.6;;
17949;SDS011;9100;48.700;9.316;2023-04-06T00:42:48;7.8;;;7.2;;
17949;SDS011;9100;48.700;9.316;2023-04-06T00:43:13;7.8;;;7.2;;
17949;SDS011;9100;48.700;9.316;2023-04-06T00:44:12;7.8;;;7.2;;
17949;SDS011;9100;48.700;9.316;2023-04-06T00:45:13;7.8;;;7.2;;
17949;SDS011;9100;48.700;9.316;2023-04-06T00:46:13;7.8;;;7.2;;
17949;SDS011;9100;48.700;9.316;2023-04-06T00:47:13;7.8;;;7.2;;
17949;SDS011;9100;48.700;9.316;2023-04-06T00:47:48;8.2;;;6.9;;
17949;SDS011;9100;48.700;9.316;2023-04-06T00:48:12;8.2;;;6.9;;
17949;SDS011;9100;48.700;9.316;2023-04-06T00:49:12;8.2;;;6.9;;
17949;SDS011;9100;48.700;9.316;2023-04-06T00:50:13;8.2;;;6.9;;
17949;SDS011;9100;48.700;9.316;2023-04-06T00:51:13;8.2;;;6.9;;
17949;SDS011;9100;48.700;9.316;2023-04-06T00:52:12;8.2;;;6.9;;
17949;SDS011;9100;48.700;9.316;2023-04-06T00:52:48;8.7;;;7.3;;
17949;SDS011;9100;48.700;9.316;2023-04-06T00:53:12;8.7;;;7.3;;
17949;SDS011;9100;48.700;9.316;2023-04-06T00:54:13;8.7;;;7.3;;
17949;SDS011;9100;48.700;9.316;2023-04-06T00:55:13;8.7;;;7.3;;
17949;SDS011;9100;48.700;9.316;2023-04-06T00:56:12;8.7;;;7.3;;
17949;SDS011;9100;48.700;9.316;2023-04-06T00:57:13;8.7;;;7.3;;
17949;SDS011;9100;48.700;9.316;2023-04-06T00:57:48;8.8;;;7.4;;
17949;SDS011;9100;48.700;9.316;2023-04-06T00:58:12;8.8;;;7.4;;
17949;SDS011;9100;48.700;9.316;2023-04-06T00:59:12;8.8;;;7.4;;
17949;SDS011;9100;48.700;9.316;2023-04-06T01:00:13;8.8;;;7.4;;
17949;SDS011;9100;48.700;9.316;2023-04-06T01:01:12;8.8;;;7.4;;
17949;SDS011;9100;48.700;9.316;2023-04-06T01:02:12;8.8;;;7.4;;
17949;SDS011;9100;48.700;9.316;2023-04-06T01:02:48;7.5;;;6.8;;
17949;SDS011;9100;48.700;9.316;2023-04-06T01:03:13;7.5;;;6.8;;
17949;SDS011;9100;48.700;9.316;2023-04-06T01:04:13;7.5;;;6.8;;
17949;SDS011;9100;48.700;9.316;2023-04-06T01:05:12;7.5;;;6.8;;
17949;SDS011;9100;48.700;9.316;2023-04-06T01:06:12;7.5;;;6.8;;
17949;SDS011;9100;48.700;9.316;2023-04-06T01:07:12;7.5;;;6.8;;
17949;SDS011;9100;48.700;9.316;2023-04-06T01:07:48;9.4;;;6.4;;
17949;SDS011;9100;48.700;9.316;2023-04-06T01:08:12;9.4;;;6.4;;
17949;SDS011;9100;48.700;9.316;2023-04-06T01:09:12;9.4;;;6.4;;
17949;SDS011;9100;48.700;9.316;2023-04-06T01:10:22;9.4;;;6.4;;
17949;SDS011;9100;48.700;9.316;2023-04-06T01:11:12;9.4;;;6.4;;
17949;SDS011;9100;48.700;9.316;2023-04-06T01:12:12;9.4;;;6.4;;
17949;SDS011;9100;48.700;9.316;2023-04-06T01:12:48;7.3;;;6.5;;
17949;SDS011;9100;48.700;9.316;2023-04-06T01:13:13;7.3;;;6.5;;
17949;SDS011;9100;48.700;9.316;2023-04-06T01:14:13;7.3;;;6.5;;
17949;SDS011;9100;48.700;9.316;2023-04-06T01:15:12;7.3;;;6.5;;
17949;SDS011;9100;48.700;9.316;2023-04-06T01:16:13;7.3;;;6.5;;
17949;SDS011;9100;48.700;9.316;2023-04-06T01:17:12;7.3;;;6.5;;
17949;SDS011;9100;48.700;9.316;2023-04-06T01:17:48;6.2;;;5.6;;
17949;SDS011;9100;48.700;9.316;2023-04-06T01:18:12;6.2;;;5.6;;
17949;SDS011;9100;48.700;9.316;2023-04-06T01:19:13;6.2;;;5.6;;
17949;SDS011;9100;48.700;9.316;2023-04-06T01:20:12;6.2;;;5.6;;
17949;SDS011;9100;48.700;9.316;2023-04-06T01:21:12;6.2;;;5.6;;
17949;SDS011;9100;48.700;9.316;2023-04-06T01:22:14;6.2;;;5.6;;
17949;SDS011;9100;48.700;9.316;2023-04-06T01:22:48;8.6;;;6.2;;
17949;SDS011;9100;48.700;9.316;2023-04-06T01:23:12;8.6;;;6.2;;
17949;SDS011;9100;48.700;9.316;2023-04-06T01:24:13;8.6;;;6.2;;
17949;SDS011;9100;48.700;9.316;2023-04-06T01:25:12;8.6;;;6.2;;
17949;SDS011;9100;48.700;9.316;2023-04-06T01:26:13;8.6;;;6.2;;
17949;SDS011;9100;48.700;9.316;2023-04-06T01:27:13;8.6;;;6.2;;
17949;SDS011;9100;48.700;9.316;2023-04-06T01:27:48;8.2;;;6.7;;
17949;SDS011;9100;48.700;9.316;2023-04-06T01:28:12;8.2;;;6.7;;
17949;SDS011;9100;48.700;9.316;2023-04-06T01:29:13;8.2;;;6.7;;
17949;SDS011;9100;48.700;9.316;2023-04-06T01:30:12;8.2;;;6.7;;
17949;SDS011;9100;48.700;9.316;2023-04-06T01:31:12;8.2;;;6.7;;
17949;SDS011;9100;48.700;9.316;2023-04-06T01:32:12;8.2;;;6.7;;
17949;SDS011;9100;48.700;9.316;2023-04-06T01:32:48;7.1;;;6.2;;
17949;SDS011;9100;48.700;9.316;2023-04-06T01:33:12;7.1;;;6.2;;
17949;SDS011;9100;48.700;9.316;2023-04-06T01:34:13;7.1;;;6.2;;
17949;SDS011;9100;48.700;9.316;2023-04-06T01:35:12;7.1;;;6.2;;
17949;SDS011;9100;48.700;9.316;2023-04-06T01:36:13;7.1;;;6.2;;
17949;SDS011;9100;48.700;9.316;2023-04-06T01:37:12;7.1;;;6.2;;
17949;SDS011;9100;48.700;9.316;2023-04-06T01:37:48;7.9;;;6.4;;
17949;SDS011;9100;48.700;9.316;2023-04-06T01:38:12;7.9;;;6.4;;
17949;SDS011;9100;48.700;9.316;2023-04-06T01:39:13;7.9;;;6.4;;
17949;SDS011;9100;48.700;9.316;2023-04-06T01:40:12;7.9;;;6.4;;
17949;SDS011;9100;48.700;9.316;2023-04-06T01:41:12;7.9;;;6.4;;
17949;SDS011;9100;48.700;9.316;2023-04-06T01:42:12;7.9;;;6.4;;
17949;SDS011;9100;48.700;9.316;2023-04-06T01:42:48;6.8;;;6.2;;
17949;SDS011;9100;48.700;9.316;2023-04-06T01:43:13;6.8;;;6.2;;
17949;SDS011;9100;48.700;9.316;2023-04-06T01:44:16;6.8;;;6.2;;
17949;SDS011;9100;48.700;9.316;2023-04-06T01:45:13;6.8;;;6.2;;
17949;SDS011;9100;48.700;9.316;2023-04-06T01:46:12;6.8;;;6.2;;
17949;SDS011;9100;48.700;9.316;2023-04-06T01:47:12;6.8;;;6.2;;
17949;SDS011;9100;48.700;9.316;2023-04-06T01:47:48;6.9;;;6.3;;
17949;SDS011;9100;48.700;9.316;2023-04-06T01:48:12;6.9;;;6.3;;
17949;SDS011;9100;48.700;9.316;2023-04-06T01:49:13;6.9;;;6.3;;
17949;SDS011;9100;48.700;9.316;2023-04-06T01:50:12;6.9;;;6.3;;
17949;SDS011;9100;48.700;9.316;2023-04-06T01:51:13;6.9;;;6.3;;
17949;SDS011;9100;48.700;9.316;2023-04-06T01:52:13;6.9;;;6.3;;
17949;SDS011;9100;48.700;9.316;2023-04-06T01:52:48;7.1;;;5.8;;
17949;SDS011;9100;48.700;9.316;2023-04-06T01:53:12;7.1;;;5.8;;
17949;SDS011;9100;48.700;9.316;2023-04-06T01:54:12;7.1;;;5.8;;
17949;SDS011;9100;48.700;9.316;2023-04-06T01:55:12;7.1;;;5.8;;
17949;SDS011;9100;48.700;9.316;2023-04-06T01:56:13;7.1;;;5.8;;
17949;SDS011;9100;48.700;9.316;2023-04-06T01:57:13;7.1;;;5.8;;
17949;SDS011;9100;48.700;9.316;2023-04-06T01:57:48;14;;;6.8;;
17949;SDS011;9100;48.700;9.316;2023-04-06T01:58:13;14;;;6.8;;
17949;SDS011;9100;48.700;9.316;2023-04-06T01:59:13;14;;;6.8;;
17949;SDS011;9100;48.700;9.316;2023-04-06T02:00:13;14;;;6.8;;
17949;SDS011;9100;48.700;9.316;2023-04-06T02:01:12;14;;;6.8;;
17949;SDS011;9100;48.700;9.316;2023-04-06T02:02:13;14;;;6.8;;
17949;SDS011;9100;48.700;9.316;2023-04-06T02:02:48;6.5;;;5.9;;
17949;SDS011;9100;48.700;9.316;2023-04-06T02:03:13;6.5;;;5.9;;
17949;SDS011;9100;48.700;9.316;2023-04-06T02:04:13;6.5;;;5.9;;
17949;SDS011;9100;48.700;9.316;2023-04-06T02:05:13;6.5;;;5.9;;
17949;SDS011;9100;48.700;9.316;2023-04-06T02:06:12;6.5;;;5.9;;
17949;SDS011;9100;48.700;9.316;2023-04-06T02:07:12;6.5;;;5.9;;
17949;SDS011;9100;48.700;9.316;2023-04-06T02:07:48;7.7;;;6.9;;
17949;SDS011;9100;48.700;9.316;2023-04-06T02:08:13;7.7;;;6.9;;
17949;SDS011;9100;48.700;9.316;2023-04-06T02:09:13;7.7;;;6.9;;
17949;SDS011;9100;48.700;9.316;2023-04-06T02:10:13;7.7;;;6.9;;
17949;SDS011;9100;48.700;9.316;2023-04-06T02:11:13;7.7;;;6.9;;
17949;SDS011;9100;48.700;9.316;2023-04-06T02:12:12;7.7;;;6.9;;
17949;SDS011;9100;48.700;9.316;2023-04-06T02:12:48;7.6;;;6.4;;
17949;SDS011;9100;48.700;9.316;2023-04-06T02:13:12;7.6;;;6.4;;
17949;SDS011;9100;48.700;9.316;2023-04-06T02:14:12;7.6;;;6.4;;
17949;SDS011;9100;48.700;9.316;2023-04-06T02:15:12;7.6;;;6.4;;
17949;SDS011;9100;48.700;9.316;2023-04-06T02:16:12;7.6;;;6.4;;
17949;SDS011;9100;48.700;9.316;2023-04-06T02:17:12;7.6;;;6.4;;
17949;SDS011;9100;48.700;9.316;2023-04-06T02:17:48;7.2;;;6.2;;
17949;SDS011;9100;48.700;9.316;2023-04-06T02:18:12;7.2;;;6.2;;
17949;SDS011;9100;48.700;9.316;2023-04-06T02:19:13;7.2;;;6.2;;
17949;SDS011;9100;48.700;9.316;2023-04-06T02:20:12;7.2;;;6.2;;
17949;SDS011;9100;48.700;9.316;2023-04-06T02:21:13;7.2;;;6.2;;
17949;SDS011;9100;48.700;9.316;2023-04-06T02:22:13;7.2;;;6.2;;
17949;SDS011;9100;48.700;9.316;2023-04-06T02:22:48;9;;;6.8;;
17949;SDS011;9100;48.700;9.316;2023-04-06T02:23:13;9;;;6.8;;
17949;SDS011;9100;48.700;9.316;2023-04-06T02:24:13;9;;;6.8;;
17949;SDS011;9100;48.700;9.316;2023-04-06T02:25:12;9;;;6.8;;
17949;SDS011;9100;48.700;9.316;2023-04-06T02:26:12;9;;;6.8;;
17949;SDS011;9100;48.700;9.316;2023-04-06T02:27:13;9;;;6.8;;
17949;SDS011;9100;48.700;9.316;2023-04-06T02:27:48;7.7;;;6.3;;
17949;SDS011;9100;48.700;9.316;2023-04-06T02:28:12;7.7;;;6.3;;
17949;SDS011;9100;48.700;9.316;2023-04-06T02:29:13;7.7;;;6.3;;
17949;SDS011;9100;48.700;9.316;2023-04-06T02:30:13;7.7;;;6.3;;
17949;SDS011;9100;48.700;9.316;2023-04-06T02:31:12;7.7;;;6.3;;
17949;SDS011;9100;48.700;9.316;2023-04-06T02:32:12;7.7;;;6.3;;
17949;SDS011;9100;48.700;9.316;2023-04-06T02:32:48;7.9;;;6.3;;
17949;SDS011;9100;48.700;9.316;2023-04-06T02:33:12;7.9;;;6.3;;
17949;SDS011;9100;48.700;9.316;2023-04-06T02:34:13;7.9;;;6.3;;
17949;SDS011;9100;48.700;9.316;2023-04-06T02:35:13;7.9;;;6.3;;
17949;SDS011;9100;48.700;9.316;2023-04-06T02:36:13;7.9;;;6.3;;
17949;SDS011;9100;48.700;9.316;2023-04-06T02:37:13;7.9;;;6.3;;
17949;SDS011;9100;48.700;9.316;2023-04-06T02:37:48;7.3;;;6;;
17949;SDS011;9100;48.700;9.316;2023-04-06T02:38:13;7.3;;;6;;
17949;SDS011;9100;48.700;9.316;2023-04-06T02:39:13;7.3;;;6;;
17949;SDS011;9100;48.700;9.316;2023-04-06T02:40:13;7.3;;;6;;
17949;SDS011;9100;48.700;9.316;2023-04-06T02:41:12;7.3;;;6;;
17949;SDS011;9100;48.700;9.316;2023-04-06T02:42:12;7.3;;;6;;
17949;SDS011;9100;48.700;9.316;2023-04-06T02:42:48;11.4;;;5.2;;
17949;SDS011;9100;48.700;9.316;2023-04-06T02:43:12;11.4;;;5.2;;
17949;SDS011;9100;48.700;9.316;2023-04-06T02:44:12;11.4;;;5.2;;
17949;SDS011;9100;48.700;9.316;2023-04-06T02:45:12;11.4;;;5.2;;
17949;SDS011;9100;48.700;9.316;2023-04-06T02:46:12;11.4;;;5.2;;
17949;SDS011;9100;48.700;9.316;2023-04-06T02:47:12;11.4;;;5.2;;
17949;SDS011;9100;48.700;9.316;2023-04-06T02:47:48;6.5;;;5.7;;
17949;SDS011;9100;48.700;9.316;2023-04-06T02:48:13;6.5;;;5.7;;
17949;SDS011;9100;48.700;9.316;2023-04-06T02:49:13;6.5;;;5.7;;
17949;SDS011;9100;48.700;9.316;2023-04-06T02:50:13;6.5;;;5.7;;
17949;SDS011;9100;48.700;9.316;2023-04-06T02:51:13;6.5;;;5.7;;
17949;SDS011;9100;48.700;9.316;2023-04-06T02:52:13;6.5;;;5.7;;
17949;SDS011;9100;48.700;9.316;2023-04-06T02:52:48;6.9;;;6.2;;
17949;SDS011;9100;48.700;9.316;2023-04-06T02:53:13;6.9;;;6.2;;
17949;SDS011;9100;48.700;9.316;2023-04-06T02:54:13;6.9;;;6.2;;
17949;SDS011;9100;48.700;9.316;2023-04-06T02:55:13;6.9;;;6.2;;
17949;SDS011;9100;48.700;9.316;2023-04-06T02:56:13;6.9;;;6.2;;
17949;SDS011;9100;48.700;9.316;2023-04-06T02:57:13;6.9;;;6.2;;
17949;SDS011;9100;48.700;9.316;2023-04-06T02:57:48;6;;;5.5;;
17949;SDS011;9100;48.700;9.316;2023-04-06T02:58:13;6;;;5.5;;
17949;SDS011;9100;48.700;9.316;2023-04-06T02:59:13;6;;;5.5;;
17949;SDS011;9100;48.700;9.316;2023-04-06T03:00:13;6;;;5.5;;
17949;SDS011;9100;48.700;9.316;2023-04-06T03:01:13;6;;;5.5;;
17949;SDS011;9100;48.700;9.316;2023-04-06T03:02:12;6;;;5.5;;
17949;SDS011;9100;48.700;9.316;2023-04-06T03:02:48;6.4;;;5.6;;
17949;SDS011;9100;48.700;9.316;2023-04-06T03:03:13;6.4;;;5.6;;
17949;SDS011;9100;48.700;9.316;2023-04-06T03:04:13;6.4;;;5.6;;
17949;SDS011;9100;48.700;9.316;2023-04-06T03:05:13;6.4;;;5.6;;
17949;SDS011;9100;48.700;9.316;2023-04-06T03:06:12;6.4;;;5.6;;
17949;SDS011;9100;48.700;9.316;2023-04-06T03:07:12;6.4;;;5.6;;
17949;SDS011;9100;48.700;9.316;2023-04-06T03:07:48;10.5;;;6.5;;
17949;SDS011;9100;48.700;9.316;2023-04-06T03:08:13;10.5;;;6.5;;
17949;SDS011;9100;48.700;9.316;2023-04-06T03:09:13;10.5;;;6.5;;
17949;SDS011;9100;48.700;9.316;2023-04-06T03:10:13;10.5;;;6.5;;
17949;SDS011;9100;48.700;9.316;2023-04-06T03:11:13;10.5;;;6.5;;
17949;SDS011;9100;48.700;9.316;2023-04-06T03:12:13;10.5;;;6.5;;
17949;SDS011;9100;48.700;9.316;2023-04-06T03:12:48;6.4;;;5.9;;
17949;SDS011;9100;48.700;9.316;2023-04-06T03:13:13;6.4;;;5.9;;
17949;SDS011;9100;48.700;9.316;2023-04-06T03:14:13;6.4;;;5.9;;
17949;SDS011;9100;48.700;9.316;2023-04-06T03:15:12;6.4;;;5.9;;
17949;SDS011;9100;48.700;9.316;2023-04-06T03:16:12;6.4;;;5.9;;
17949;SDS011;9100;48.700;9.316;2023-04-06T03:17:12;6.4;;;5.9;;
17949;SDS011;9100;48.700;9.316;2023-04-06T03:17:48;6.5;;;5.7;;
17949;SDS011;9100;48.700;9.316;2023-04-06T03:18:13;6.5;;;5.7;;
17949;SDS011;9100;48.700;9.316;2023-04-06T03:19:13;6.5;;;5.7;;
17949;SDS011;9100;48.700;9.316;2023-04-06T03:20:13;6.5;;;5.7;;
17949;SDS011;9100;48.700;9.316;2023-04-06T03:21:13;6.5;;;5.7;;
17949;SDS011;9100;48.700;9.316;2023-04-06T03:22:13;6.5;;;5.7;;
17949;SDS011;9100;48.700;9.316;2023-04-06T03:22:48;5.9;;;5.3;;
17949;SDS011;9100;48.700;9.316;2023-04-06T03:23:12;5.9;;;5.3;;
17949;SDS011;9100;48.700;9.316;2023-04-06T03:24:13;5.9;;;5.3;;
17949;SDS011;9100;48.700;9.316;2023-04-06T03:25:13;5.9;;;5.3;;
17949;SDS011;9100;48.700;9.316;2023-04-06T03:26:13;5.9;;;5.3;;
17949;SDS011;9100;48.700;9.316;2023-04-06T03:27:12;5.9;;;5.3;;
17949;SDS011;9100;48.700;9.316;2023-04-06T03:27:48;8.3;;;5.8;;
17949;SDS011;9100;48.700;9.316;2023-04-06T03:28:12;8.3;;;5.8;;
17949;SDS011;9100;48.700;9.316;2023-04-06T03:29:13;8.3;;;5.8;;
17949;SDS011;9100;48.700;9.316;2023-04-06T03:30:13;8.3;;;5.8;;
17949;SDS011;9100;48.700;9.316;2023-04-06T03:31:13;8.3;;;5.8;;
17949;SDS011;9100;48.700;9.316;2023-04-06T03:32:13;8.3;;;5.8;;
17949;SDS011;9100;48.700;9.316;2023-04-06T03:32:48;6.4;;;5.9;;
17949;SDS011;9100;48.700;9.316;2023-04-06T03:33:13;6.4;;;5.9;;
17949;SDS011;9100;48.700;9.316;2023-04-06T03:34:12;6.4;;;5.9;;
17949;SDS011;9100;48.700;9.316;2023-04-06T03:35:13;6.4;;;5.9;;
17949;SDS011;9100;48.700;9.316;2023-04-06T03:36:13;6.4;;;5.9;;
17949;SDS011;9100;48.700;9.316;2023-04-06T03:37:12;6.4;;;5.9;;
17949;SDS011;9100;48.700;9.316;2023-04-06T03:37:48;6.4;;;5.7;;
17949;SDS011;9100;48.700;9.316;2023-04-06T03:38:12;6.4;;;5.7;;
17949;SDS011;9100;48.700;9.316;2023-04-06T03:39:13;6.4;;;5.7;;
17949;SDS011;9100;48.700;9.316;2023-04-06T03:40:13;6.4;;;5.7;;
17949;SDS011;9100;48.700;9.316;2023-04-06T03:41:13;6.4;;;5.7;;
17949;SDS011;9100;48.700;9.316;2023-04-06T03:42:13;6.4;;;5.7;;
17949;SDS011;9100;48.700;9.316;2023-04-06T03:42:48;12.2;;;6.1;;
17949;SDS011;9100;48.700;9.316;2023-04-06T03:43:13;12.2;;;6.1;;
17949;SDS011;9100;48.700;9.316;2023-04-06T03:44:13;12.2;;;6.1;;
17949;SDS011;9100;48.700;9.316;2023-04-06T03:45:13;12.2;;;6.1;;
17949;SDS011;9100;48.700;9.316;2023-04-06T03:46:13;12.2;;;6.1;;
17949;SDS011;9100;48.700;9.316;2023-04-06T03:47:13;12.2;;;6.1;;
17949;SDS011;9100;48.700;9.316;2023-04-06T03:47:48;9.1;;;6.2;;
17949;SDS011;9100;48.700;9.316;2023-04-06T03:48:12;9.1;;;6.2;;
17949;SDS011;9100;48.700;9.316;2023-04-06T03:49:13;9.1;;;6.2;;
17949;SDS011;9100;48.700;9.316;2023-04-06T03:50:13;9.1;;;6.2;;
17949;SDS011;9100;48.700;9.316;2023-04-06T03:51:13;9.1;;;6.2;;
17949;SDS011;9100;48.700;9.316;2023-04-06T03:52:13;9.1;;;6.2;;
17949;SDS011;9100;48.700;9.316;2023-04-06T03:52:48;6.2;;;5.6;;
17949;SDS011;9100;48.700;9.316;2023-04-06T03:53:13;6.2;;;5.6;;
17949;SDS011;9100;48.700;9.316;2023-04-06T03:54:13;6.2;;;5.6;;
17949;SDS011;9100;48.700;9.316;2023-04-06T03:55:12;6.2;;;5.6;;
17949;SDS011;9100;48.700;9.316;2023-04-06T03:56:12;6.2;;;5.6;;
17949;SDS011;9100;48.700;9.316;2023-04-06T03:57:13;6.2;;;5.6;;
17949;SDS011;9100;48.700;9.316;2023-04-06T03:57:48;5.9;;;5.4;;
17949;SDS011;9100;48.700;9.316;2023-04-06T03:58:13;5.9;;;5.4;;
17949;SDS011;9100;48.700;9.316;2023-04-06T03:59:13;5.9;;;5.4;;
17949;SDS011;9100;48.700;9.316;2023-04-06T04:00:13;5.9;;;5.4;;
17949;SDS011;9100;48.700;9.316;2023-04-06T04:01:12;5.9;;;5.4;;
17949;SDS011;9100;48.700;9.316;2023-04-06T04:02:13;5.9;;;5.4;;
17949;SDS011;9100;48.700;9.316;2023-04-06T04:02:48;3.1;;;2.9;;
17949;SDS011;9100;48.700;9.316;2023-04-06T04:03:13;3.1;;;2.9;;
17949;SDS011;9100;48.700;9.316;2023-04-06T04:04:13;3.1;;;2.9;;
17949;SDS011;9100;48.700;9.316;2023-04-06T04:05:13;3.1;;;2.9;;
17949;SDS011;9100;48.700;9.316;2023-04-06T04:06:13;3.1;;;2.9;;
17949;SDS011;9100;48.700;9.316;2023-04-06T04:07:13;3.1;;;2.9;;
17949;SDS011;9100;48.700;9.316;2023-04-06T04:07:48;7.3;;;5.5;;
17949;SDS011;9100;48.700;9.316;2023-04-06T04:08:13;7.3;;;5.5;;
17949;SDS011;9100;48.700;9.316;2023-04-06T04:09:13;7.3;;;5.5;;
17949;SDS011;9100;48.700;9.316;2023-04-06T04:10:13;7.3;;;5.5;;
17949;SDS011;9100;48.700;9.316;2023-04-06T04:11:13;7.3;;;5.5;;
17949;SDS011;9100;48.700;9.316;2023-04-06T04:12:13;7.3;;;5.5;;
17949;SDS011;9100;48.700;9.316;2023-04-06T04:12:48;5.9;;;5.3;;
17949;SDS011;9100;48.700;9.316;2023-04-06T04:13:13;5.9;;;5.3;;
17949;SDS011;9100;48.700;9.316;2023-04-06T04:14:13;5.9;;;5.3;;
17949;SDS011;9100;48.700;9.316;2023-04-06T04:15:13;5.9;;;5.3;;
17949;SDS011;9100;48.700;9.316;2023-04-06T04:16:13;5.9;;;5.3;;
17949;SDS011;9100;48.700;9.316;2023-04-06T04:17:13;5.9;;;5.3;;
17949;SDS011;9100;48.700;9.316;2023-04-06T04:17:48;6.8;;;6.2;;
17949;SDS011;9100;48.700;9.316;2023-04-06T04:18:13;6.8;;;6.2;;
17949;SDS011;9100;48.700;9.316;2023-04-06T04:19:13;6.8;;;6.2;;
17949;SDS011;9100;48.700;9.316;2023-04-06T04:20:13;6.8;;;6.2;;
17949;SDS011;9100;48.700;9.316;2023-04-06T04:21:13;6.8;;;6.2;;
17949;SDS011;9100;48.700;9.316;2023-04-06T04:22:12;6.8;;;6.2;;
17949;SDS011;9100;48.700;9.316;2023-04-06T04:22:48;8.1;;;5.5;;
17949;SDS011;9100;48.700;9.316;2023-04-06T04:23:13;8.1;;;5.5;;
17949;SDS011;9100;48.700;9.316;2023-04-06T04:24:13;8.1;;;5.5;;
17949;SDS011;9100;48.700;9.316;2023-04-06T04:25:13;8.1;;;5.5;;
17949;SDS011;9100;48.700;9.316;2023-04-06T04:26:13;8.1;;;5.5;;
17949;SDS011;9100;48.700;9.316;2023-04-06T04:27:13;8.1;;;5.5;;
17949;SDS011;9100;48.700;9.316;2023-04-06T04:27:48;7.8;;;6;;
17949;SDS011;9100;48.700;9.316;2023-04-06T04:28:13;7.8;;;6;;
17949;SDS011;9100;48.700;9.316;2023-04-06T04:29:13;7.8;;;6;;
17949;SDS011;9100;48.700;9.316;2023-04-06T04:30:13;7.8;;;6;;
17949;SDS011;9100;48.700;9.316;2023-04-06T04:31:13;7.8;;;6;;
17949;SDS011;9100;48.700;9.316;2023-04-06T04:32:13;7.8;;;6;;
17949;SDS011;9100;48.700;9.316;2023-04-06T04:32:48;7.2;;;5.6;;
17949;SDS011;9100;48.700;9.316;2023-04-06T04:33:13;7.2;;;5.6;;
17949;SDS011;9100;48.700;9.316;2023-04-06T04:34:13;7.2;;;5.6;;
17949;SDS011;9100;48.700;9.316;2023-04-06T04:35:13;7.2;;;5.6;;
17949;SDS011;9100;48.700;9.316;2023-04-06T04:36:13;7.2;;;5.6;;
17949;SDS011;9100;48.700;9.316;2023-04-06T04:37:13;7.2;;;5.6;;
17949;SDS011;9100;48.700;9.316;2023-04-06T04:37:48;5.7;;;5.3;;
17949;SDS011;9100;48.700;9.316;2023-04-06T04:38:13;5.7;;;5.3;;
17949;SDS011;9100;48.700;9.316;2023-04-06T04:39:13;5.7;;;5.3;;
17949;SDS011;9100;48.700;9.316;2023-04-06T04:40:13;5.7;;;5.3;;
17949;SDS011;9100;48.700;9.316;2023-04-06T04:41:13;5.7;;;5.3;;
17949;SDS011;9100;48.700;9.316;2023-04-06T04:42:13;5.7;;;5.3;;
17949;SDS011;9100;48.700;9.316;2023-04-06T04:42:49;6;;;5.4;;
17949;SDS011;9100;48.700;9.316;2023-04-06T04:43:13;6;;;5.4;;
17949;SDS011;9100;48.700;9.316;2023-04-06T04:44:13;6;;;5.4;;
17949;SDS011;9100;48.700;9.316;2023-04-06T04:45:13;6;;;5.4;;
17949;SDS011;9100;48.700;9.316;2023-04-06T04:46:13;6;;;5.4;;
17949;SDS011;9100;48.700;9.316;2023-04-06T04:47:13;6;;;5.4;;
17949;SDS011;9100;48.700;9.316;2023-04-06T04:47:48;6.4;;;5.8;;
17949;SDS011;9100;48.700;9.316;2023-04-06T04:48:13;6.4;;;5.8;;
17949;SDS011;9100;48.700;9.316;2023-04-06T04:49:13;6.4;;;5.8;;
17949;SDS011;9100;48.700;9.316;2023-04-06T04:50:13;6.4;;;5.8;;
17949;SDS011;9100;48.700;9.316;2023-04-06T04:51:13;6.4;;;5.8;;
17949;SDS011;9100;48.700;9.316;2023-04-06T04:52:13;6.4;;;5.8;;
17949;SDS011;9100;48.700;9.316;2023-04-06T04:52:48;5.7;;;4.3;;
17949;SDS011;9100;48.700;9.316;2023-04-06T04:53:13;5.7;;;4.3;;
17949;SDS011;9100;48.700;9.316;2023-04-06T04:54:13;5.7;;;4.3;;
17949;SDS011;9100;48.700;9.316;2023-04-06T04:55:13;5.7;;;4.3;;
17949;SDS011;9100;48.700;9.316;2023-04-06T04:56:13;5.7;;;4.3;;
17949;SDS011;9100;48.700;9.316;2023-04-06T04:57:13;5.7;;;4.3;;
17949;SDS011;9100;48.700;9.316;2023-04-06T04:57:48;5;;;4.6;;
17949;SDS011;9100;48.700;9.316;2023-04-06T04:58:13;5;;;4.6;;
17949;SDS011;9100;48.700;9.316;2023-04-06T04:59:13;5;;;4.6;;
17949;SDS011;9100;48.700;9.316;2023-04-06T05:00:13;5;;;4.6;;
17949;SDS011;9100;48.700;9.316;2023-04-06T05:01:13;5;;;4.6;;
17949;SDS011;9100;48.700;9.316;2023-04-06T05:02:13;5;;;4.6;;
17949;SDS011;9100;48.700;9.316;2023-04-06T05:02:48;3.6;;;3.4;;
17949;SDS011;9100;48.700;9.316;2023-04-06T05:03:14;3.6;;;3.4;;
17949;SDS011;9100;48.700;9.316;2023-04-06T05:04:13;3.6;;;3.4;;
17949;SDS011;9100;48.700;9.316;2023-04-06T05:05:13;3.6;;;3.4;;
17949;SDS011;9100;48.700;9.316;2023-04-06T05:06:13;3.6;;;3.4;;
17949;SDS011;9100;48.700;9.316;2023-04-06T05:07:13;3.6;;;3.4;;
17949;SDS011;9100;48.700;9.316;2023-04-06T05:07:48;5.8;;;5.2;;
17949;SDS011;9100;48.700;9.316;2023-04-06T05:08:13;5.8;;;5.2;;
17949;SDS011;9100;48.700;9.316;2023-04-06T05:09:13;5.8;;;5.2;;
17949;SDS011;9100;48.700;9.316;2023-04-06T05:10:13;5.8;;;5.2;;
17949;SDS011;9100;48.700;9.316;2023-04-06T05:11:13;5.8;;;5.2;;
17949;SDS011;9100;48.700;9.316;2023-04-06T05:12:13;5.8;;;5.2;;
17949;SDS011;9100;48.700;9.316;2023-04-06T05:12:48;8;;;4.8;;
17949;SDS011;9100;48.700;9.316;2023-04-06T05:13:13;8;;;4.8;;
17949;SDS011;9100;48.700;9.316;2023-04-06T05:14:13;8;;;4.8;;
17949;SDS011;9100;48.700;9.316;2023-04-06T05:15:12;8;;;4.8;;
17949;SDS011;9100;48.700;9.316;2023-04-06T05:16:13;8;;;4.8;;
17949;SDS011;9100;48.700;9.316;2023-04-06T05:17:13;8;;;4.8;;